Time;durP1;ratioP1;P1;durP2;ratioP2;P2;SDS_P1;SDS_P2;PMS_P1;PMS_P2;Temp;Humidity;BMP_temperature;BMP_pressure;BME280_temperature;BME280_humidity;BME280_pressure;Samples;Min_cycle;Max_cycle;Signal;HPM_P1;HPM_P2
2021/12/09 00:01:59;;;;;;;31.47;19.80;;;3.40;99.90;;;;;;5012867;28;20612;-74
2021/12/09 00:04:29;;;;;;;33.30;20.30;;;3.40;99.90;;;;;;5008081;28;20607;-74
2021/12/09 00:06:55;;;;;;;32.03;19.70;;;3.40;99.90;;;;;;5016308;28;20621;-74
2021/12/09 00:09:21;;;;;;;38.20;20.77;;;3.30;99.90;;;;;;5009924;28;21007;-74
2021/12/09 00:11:49;;;;;;;32.60;18.60;;;3.30;99.90;;;;;;5002332;28;20615;-74
2021/12/09 00:14:18;;;;;;;34.10;20.90;;;3.40;99.90;;;;;;5013902;28;20621;-73
2021/12/09 00:16:49;;;;;;;34.83;20.43;;;3.30;99.90;;;;;;5022532;28;20743;-73
2021/12/09 00:19:18;;;;;;;36.67;20.57;;;3.40;99.90;;;;;;5007192;28;20636;-73
2021/12/09 00:21:48;;;;;;;32.90;21.10;;;3.40;99.90;;;;;;5009196;28;20686;-72
2021/12/09 00:24:15;;;;;;;32.87;20.40;;;3.30;99.90;;;;;;5005554;28;20620;-73
2021/12/09 00:26:43;;;;;;;36.23;20.70;;;3.30;99.90;;;;;;5013629;28;20730;-74
2021/12/09 00:29:10;;;;;;;34.30;21.00;;;3.30;99.90;;;;;;5007876;28;20643;-74
2021/12/09 00:31:38;;;;;;;33.13;20.40;;;3.20;99.90;;;;;;5009711;28;20603;-74
2021/12/09 00:34:04;;;;;;;35.63;21.73;;;3.20;99.90;;;;;;5004796;28;20620;-74
2021/12/09 00:36:41;;;;;;;35.63;20.27;;;3.10;99.90;;;;;;5006421;28;20721;-73
2021/12/09 00:39:10;;;;;;;39.17;20.60;;;3.20;99.90;;;;;;5007860;28;20675;-72
2021/12/09 00:41:37;;;;;;;33.87;20.97;;;3.20;99.90;;;;;;5006547;28;21357;-73
2021/12/09 00:44:07;;;;;;;34.57;19.80;;;3.20;99.90;;;;;;5005861;28;20687;-73
2021/12/09 00:46:33;;;;;;;34.93;19.50;;;3.20;99.90;;;;;;5005496;28;20746;-73
2021/12/09 00:48:59;;;;;;;35.30;20.77;;;3.30;99.90;;;;;;5011754;28;20653;-74
2021/12/09 00:51:29;;;;;;;31.83;19.53;;;3.30;99.90;;;;;;4999537;28;20273;-74
2021/12/09 00:53:57;;;;;;;31.53;18.83;;;3.40;99.90;;;;;;5007062;28;20182;-74
2021/12/09 00:56:23;;;;;;;35.40;20.80;;;3.40;99.90;;;;;;5002963;28;20733;-72
2021/12/09 00:58:50;;;;;;;32.37;20.13;;;3.40;99.90;;;;;;5023108;28;20667;-73
2021/12/09 01:01:19;;;;;;;34.90;21.13;;;3.30;99.90;;;;;;4997831;28;20630;-73
2021/12/09 01:03:45;;;;;;;33.87;20.27;;;3.30;99.90;;;;;;5020276;28;21310;-74
2021/12/09 01:06:10;;;;;;;32.13;19.77;;;3.30;99.90;;;;;;5005099;28;20716;-74
2021/12/09 01:08:37;;;;;;;34.80;19.63;;;3.40;99.90;;;;;;5004835;28;20556;-74
2021/12/09 01:11:09;;;;;;;35.97;19.60;;;3.40;99.90;;;;;;5009686;28;20196;-74
2021/12/09 01:13:35;;;;;;;33.13;20.73;;;3.40;99.90;;;;;;5008502;28;20630;-74
2021/12/09 01:16:04;;;;;;;30.27;21.17;;;3.40;99.90;;;;;;5003485;28;20651;-74
2021/12/09 01:18:31;;;;;;;35.03;20.33;;;3.50;99.90;;;;;;5005576;28;20668;-73
2021/12/09 01:20:59;;;;;;;34.30;20.13;;;3.40;99.90;;;;;;5008851;28;21238;-74
2021/12/09 01:23:25;;;;;;;34.90;21.80;;;3.50;99.90;;;;;;5006887;28;21043;-74
2021/12/09 01:25:58;;;;;;;32.67;20.00;;;3.30;99.90;;;;;;5004221;28;20782;-74
2021/12/09 01:28:28;;;;;;;37.63;20.97;;;3.30;99.90;;;;;;5007240;28;20252;-74
2021/12/09 01:31:01;;;;;;;32.33;20.43;;;3.20;99.90;;;;;;5000647;28;20597;-74
2021/12/09 01:33:31;;;;;;;33.83;21.20;;;3.20;99.90;;;;;;5004585;28;20631;-73
2021/12/09 01:35:59;;;;;;;37.77;21.73;;;3.30;99.90;;;;;;5004880;28;20644;-73
2021/12/09 01:38:29;;;;;;;34.73;20.10;;;3.30;99.90;;;;;;5005499;28;20651;-73
2021/12/09 01:40:55;;;;;;;32.63;20.60;;;3.30;99.90;;;;;;5006667;28;20589;-74
2021/12/09 01:43:24;;;;;;;39.57;21.27;;;3.40;99.90;;;;;;5006831;28;20645;-73
2021/12/09 01:46:03;;;;;;;36.50;21.93;;;3.40;99.90;;;;;;5006680;28;20618;-73
2021/12/09 01:48:31;;;;;;;38.43;21.30;;;3.20;99.90;;;;;;5009351;28;20639;-73
2021/12/09 01:50:59;;;;;;;34.20;20.53;;;3.30;99.90;;;;;;5004393;28;20647;-73
2021/12/09 01:53:25;;;;;;;35.00;21.70;;;3.20;99.90;;;;;;5020642;28;20635;-73
2021/12/09 01:55:51;;;;;;;32.40;22.27;;;3.30;99.90;;;;;;5005303;28;20731;-73
2021/12/09 01:58:19;;;;;;;40.23;22.07;;;3.30;99.90;;;;;;5020458;28;20228;-74
2021/12/09 02:00:45;;;;;;;37.33;21.83;;;3.40;99.90;;;;;;5005373;28;20667;-73
2021/12/09 02:03:12;;;;;;;40.03;22.00;;;3.40;99.90;;;;;;5005934;28;20644;-73
2021/12/09 02:05:41;;;;;;;39.00;22.30;;;3.40;99.90;;;;;;5007607;28;20200;-74
2021/12/09 02:08:08;;;;;;;39.97;21.73;;;3.30;99.90;;;;;;5003831;28;21629;-74
2021/12/09 02:10:36;;;;;;;36.27;22.23;;;3.30;99.90;;;;;;5009582;28;20620;-73
2021/12/09 02:13:04;;;;;;;37.03;21.97;;;3.30;99.90;;;;;;5007801;28;20666;-73
2021/12/09 02:15:29;;;;;;;42.27;22.13;;;3.30;99.90;;;;;;5008748;28;20640;-74
2021/12/09 02:17:56;;;;;;;37.60;21.60;;;3.30;99.90;;;;;;5007054;28;20625;-73
2021/12/09 02:20:27;;;;;;;37.93;22.67;;;3.30;99.90;;;;;;5007339;28;20209;-73
2021/12/09 02:22:53;;;;;;;38.57;21.60;;;3.20;99.90;;;;;;5024712;28;20830;-74
2021/12/09 02:25:18;;;;;;;44.10;22.07;;;3.10;99.90;;;;;;5008094;28;20643;-73
2021/12/09 02:27:49;;;;;;;38.10;22.27;;;3.20;99.90;;;;;;5013593;28;20304;-76
2021/12/09 02:30:15;;;;;;;37.60;22.37;;;3.00;99.90;;;;;;5000586;28;20309;-74
2021/12/09 02:32:42;;;;;;;35.63;21.37;;;3.00;99.90;;;;;;5008054;28;20617;-73
2021/12/09 02:35:08;;;;;;;37.70;22.07;;;3.10;99.90;;;;;;5008448;28;20739;-74
2021/12/09 02:37:36;;;;;;;41.57;22.97;;;3.10;99.90;;;;;;5008821;28;20693;-73
2021/12/09 02:40:06;;;;;;;41.43;24.03;;;3.10;99.90;;;;;;5003671;28;21103;-72
2021/12/09 02:42:32;;;;;;;39.77;21.03;;;3.20;99.90;;;;;;5022763;28;20647;-73
2021/12/09 02:45:00;;;;;;;38.47;21.50;;;3.20;99.90;;;;;;5007678;28;20677;-74
2021/12/09 02:47:26;;;;;;;38.73;21.77;;;3.30;99.90;;;;;;5000332;28;20648;-74
2021/12/09 02:49:52;;;;;;;43.90;24.33;;;3.30;99.90;;;;;;5016673;28;20667;-72
2021/12/09 02:52:19;;;;;;;34.30;21.70;;;3.30;99.90;;;;;;5007521;28;20620;-74
2021/12/09 02:54:47;;;;;;;38.97;21.80;;;3.30;99.90;;;;;;5010348;28;20711;-75
2021/12/09 02:57:13;;;;;;;37.40;22.40;;;3.30;99.90;;;;;;5016724;28;20627;-73
2021/12/09 02:59:39;;;;;;;42.13;23.27;;;3.20;99.90;;;;;;5041142;28;20639;-72
2021/12/09 03:02:07;;;;;;;39.23;23.17;;;3.20;99.90;;;;;;5025062;28;20528;-74
2021/12/09 03:04:42;;;;;;;37.80;21.67;;;3.30;99.90;;;;;;5034464;28;21500;-75
2021/12/09 03:07:14;;;;;;;39.90;22.10;;;3.10;99.90;;;;;;5025251;28;20688;-74
2021/12/09 03:09:49;;;;;;;38.57;22.87;;;3.20;99.90;;;;;;5027069;28;20635;-74
2021/12/09 03:12:24;;;;;;;40.57;22.00;;;3.20;99.90;;;;;;5043568;28;20633;-74
2021/12/09 03:14:53;;;;;;;38.60;21.00;;;3.30;99.90;;;;;;5026247;28;20646;-74
2021/12/09 03:17:22;;;;;;;40.57;23.40;;;3.20;99.90;;;;;;5026273;28;20641;-74
2021/12/09 03:19:51;;;;;;;43.03;21.53;;;3.20;99.90;;;;;;5026582;28;20635;-74
2021/12/09 03:22:17;;;;;;;44.37;22.40;;;3.10;99.90;;;;;;5026365;28;20619;-74
2021/12/09 03:24:43;;;;;;;40.03;21.90;;;3.20;99.90;;;;;;5040847;28;20630;-73
2021/12/09 03:27:12;;;;;;;38.00;22.40;;;3.20;99.90;;;;;;5024789;28;20627;-74
2021/12/09 03:29:38;;;;;;;43.93;22.80;;;3.20;99.90;;;;;;5042891;28;20655;-74
2021/12/09 03:32:15;;;;;;;41.93;22.30;;;3.20;99.90;;;;;;5026259;28;20646;-74
2021/12/09 03:34:48;;;;;;;44.93;22.97;;;3.20;99.90;;;;;;5023660;28;21018;-74
2021/12/09 03:37:21;;;;;;;44.33;24.57;;;3.20;99.90;;;;;;5020647;28;20663;-74
2021/12/09 03:39:51;;;;;;;43.40;24.30;;;3.20;99.90;;;;;;5027688;28;20735;-74
2021/12/09 03:42:21;;;;;;;43.47;22.47;;;3.30;99.90;;;;;;5026722;28;20616;-74
2021/12/09 03:44:51;;;;;;;46.80;23.97;;;3.20;99.90;;;;;;5023665;28;20608;-74
2021/12/09 03:47:20;;;;;;;40.47;22.33;;;3.10;99.90;;;;;;5041447;28;20741;-73
2021/12/09 03:49:46;;;;;;;42.07;24.20;;;3.10;99.90;;;;;;5024946;28;21150;-74
2021/12/09 03:52:12;;;;;;;45.27;24.37;;;3.20;99.90;;;;;;5015838;28;20670;-74
2021/12/09 03:54:42;;;;;;;43.13;22.73;;;3.20;99.90;;;;;;5028125;28;20639;-74
2021/12/09 03:57:11;;;;;;;44.80;23.17;;;3.20;99.90;;;;;;5024111;28;20642;-74
2021/12/09 03:59:38;;;;;;;46.63;23.57;;;3.20;99.90;;;;;;5042002;28;20635;-73
2021/12/09 04:02:06;;;;;;;43.10;23.90;;;3.20;99.90;;;;;;5025157;28;20608;-74
2021/12/09 04:04:38;;;;;;;45.17;23.83;;;3.20;99.90;;;;;;5023113;28;20600;-74
2021/12/09 04:07:04;;;;;;;42.67;23.30;;;3.20;99.90;;;;;;5025819;28;20620;-74
2021/12/09 04:09:30;;;;;;;44.60;22.93;;;3.20;99.90;;;;;;5027763;28;20657;-74
2021/12/09 04:11:59;;;;;;;54.17;24.87;;;3.10;99.90;;;;;;5027650;28;20611;-74
2021/12/09 04:14:24;;;;;;;43.40;24.27;;;3.00;99.90;;;;;;5025051;28;20189;-74
2021/12/09 04:16:52;;;;;;;44.60;23.60;;;3.00;99.90;;;;;;5025991;28;20627;-73
2021/12/09 04:19:23;;;;;;;45.43;24.27;;;3.10;99.90;;;;;;5025691;28;20660;-73
2021/12/09 04:21:50;;;;;;;46.53;22.97;;;3.10;99.90;;;;;;5026333;28;20587;-74
2021/12/09 04:24:16;;;;;;;45.17;23.90;;;3.20;99.90;;;;;;5026188;28;20678;-75
2021/12/09 04:26:50;;;;;;;47.20;24.70;;;3.20;99.90;;;;;;5025616;28;20607;-74
2021/12/09 04:29:16;;;;;;;46.77;23.17;;;3.20;99.90;;;;;;5019929;28;20670;-74
2021/12/09 04:31:42;;;;;;;40.37;22.40;;;3.20;99.90;;;;;;5026335;28;21045;-74
2021/12/09 04:34:08;;;;;;;44.57;23.83;;;3.10;99.90;;;;;;5026139;28;20689;-74
2021/12/09 04:36:38;;;;;;;44.30;23.67;;;3.20;99.90;;;;;;5023774;28;21049;-74
2021/12/09 04:39:05;;;;;;;46.10;25.30;;;3.20;99.90;;;;;;5026396;28;21068;-74
2021/12/09 04:41:30;;;;;;;47.13;23.60;;;3.20;99.90;;;;;;5025230;28;20781;-73
2021/12/09 04:43:59;;;;;;;44.40;23.37;;;3.20;99.90;;;;;;5021485;28;20641;-73
2021/12/09 04:46:24;;;;;;;45.53;24.10;;;3.10;99.90;;;;;;5021737;28;20644;-74
2021/12/09 04:48:56;;;;;;;48.90;25.43;;;2.90;99.90;;;;;;5024608;28;20722;-74
2021/12/09 04:51:25;;;;;;;44.77;23.67;;;3.20;99.90;;;;;;5022734;28;20283;-74
2021/12/09 04:53:51;;;;;;;41.03;22.53;;;3.20;99.90;;;;;;5026971;28;20622;-74
2021/12/09 04:56:24;;;;;;;45.47;24.03;;;3.20;99.90;;;;;;5026164;28;21230;-75
2021/12/09 04:58:52;;;;;;;45.70;23.43;;;3.20;99.90;;;;;;5032100;28;20662;-74
2021/12/09 05:01:30;;;;;;;45.40;23.83;;;3.20;99.90;;;;;;5026857;28;22200;-74
2021/12/09 05:04:05;;;;;;;45.17;24.03;;;3.20;99.90;;;;;;5031522;28;20613;-74
2021/12/09 05:06:33;;;;;;;40.10;22.87;;;3.20;99.90;;;;;;5038399;28;21243;-73
2021/12/09 05:09:05;;;;;;;45.73;24.93;;;3.20;99.90;;;;;;5024370;28;20777;-73
2021/12/09 05:11:47;;;;;;;43.50;21.30;;;3.20;99.90;;;;;;5024106;28;20600;-74
2021/12/09 05:14:20;;;;;;;46.40;24.77;;;3.20;99.90;;;;;;5026243;28;20612;-74
2021/12/09 05:16:48;;;;;;;44.33;25.50;;;3.20;99.90;;;;;;5018120;28;20769;-74
2021/12/09 05:19:16;;;;;;;47.60;24.77;;;3.20;99.90;;;;;;5024029;28;20647;-73
2021/12/09 05:21:44;;;;;;;50.03;25.30;;;3.20;99.90;;;;;;5025509;28;20620;-74
2021/12/09 05:24:15;;;;;;;44.17;23.03;;;3.20;99.90;;;;;;5024366;28;20637;-74
2021/12/09 05:26:52;;;;;;;45.63;23.13;;;3.20;99.90;;;;;;5025415;28;20726;-74
2021/12/09 05:29:21;;;;;;;43.50;23.87;;;3.20;99.90;;;;;;5025054;28;20639;-73
2021/12/09 05:34:44;;;;;;;;;;;;;;;;;;;;;
2021/12/09 05:37:16;;;;;;;42.43;22.13;;;3.20;99.90;;;;;;5021689;28;20637;-74
2021/12/09 05:39:43;;;;;;;46.13;23.37;;;3.10;99.90;;;;;;5025635;28;20706;-75
2021/12/09 05:42:12;;;;;;;38.80;20.90;;;3.20;99.90;;;;;;5028155;28;20591;-73
2021/12/09 05:44:39;;;;;;;41.53;22.30;;;3.20;99.90;;;;;;5023466;28;21442;-74
2021/12/09 05:47:08;;;;;;;45.40;23.27;;;3.20;99.90;;;;;;5039576;28;21014;-74
2021/12/09 05:49:38;;;;;;;44.87;24.10;;;3.10;99.90;;;;;;5038027;28;20659;-74
2021/12/09 05:52:05;;;;;;;46.33;24.23;;;3.10;99.90;;;;;;5022697;28;20638;-74
2021/12/09 05:54:31;;;;;;;45.13;24.03;;;2.90;99.90;;;;;;5025116;28;20623;-75
2021/12/09 05:57:00;;;;;;;40.87;23.50;;;2.90;99.90;;;;;;5021661;28;20628;-73
2021/12/09 05:59:28;;;;;;;41.13;22.47;;;3.00;99.90;;;;;;5026194;28;20327;-74
2021/12/09 06:01:54;;;;;;;45.10;25.00;;;2.90;99.90;;;;;;5017571;28;20734;-74
2021/12/09 06:04:21;;;;;;;43.00;23.87;;;2.90;99.90;;;;;;5020212;28;21242;-74
2021/12/09 06:06:48;;;;;;;45.10;23.30;;;2.90;99.90;;;;;;5006382;28;20225;-74
2021/12/09 06:09:14;;;;;;;43.80;23.27;;;3.00;99.90;;;;;;5007758;28;20647;-74
2021/12/09 06:11:43;;;;;;;46.77;24.50;;;3.00;99.90;;;;;;5000233;28;20655;-75
2021/12/09 06:14:09;;;;;;;42.40;23.30;;;3.00;99.90;;;;;;4998597;28;20644;-74
2021/12/09 06:16:35;;;;;;;44.53;25.53;;;3.00;99.90;;;;;;4999138;28;21066;-75
2021/12/09 06:19:02;;;;;;;37.20;22.70;;;3.00;99.90;;;;;;5006407;28;20205;-75
2021/12/09 06:21:28;;;;;;;43.63;22.93;;;3.00;99.90;;;;;;4991677;28;21194;-74
2021/12/09 06:24:02;;;;;;;46.13;24.20;;;3.00;99.90;;;;;;4996046;28;20723;-75
2021/12/09 06:26:29;;;;;;;44.30;24.90;;;3.00;99.90;;;;;;4999974;28;20640;-75
2021/12/09 06:28:55;;;;;;;43.63;23.90;;;3.00;99.90;;;;;;5005302;28;20675;-74
2021/12/09 06:31:21;;;;;;;42.57;22.73;;;3.10;99.90;;;;;;5002883;28;20618;-74
2021/12/09 06:33:47;;;;;;;43.13;22.87;;;3.00;99.90;;;;;;5014406;28;20191;-73
2021/12/09 06:36:13;;;;;;;45.77;22.97;;;3.00;99.90;;;;;;4993108;28;22262;-72
2021/12/09 06:38:39;;;;;;;41.00;23.53;;;3.00;99.90;;;;;;4991534;28;20663;-73
2021/12/09 06:41:05;;;;;;;43.67;23.93;;;3.10;99.90;;;;;;4993562;28;20346;-73
2021/12/09 06:43:31;;;;;;;47.13;24.70;;;3.10;99.90;;;;;;5006215;28;20677;-72
2021/12/09 06:45:58;;;;;;;43.87;24.20;;;3.10;99.90;;;;;;4998738;28;20655;-72
2021/12/09 06:48:24;;;;;;;45.33;23.87;;;3.10;99.90;;;;;;5015144;28;20765;-72
2021/12/09 06:50:51;;;;;;;44.97;24.37;;;3.10;99.90;;;;;;5015322;28;21205;-72
2021/12/09 06:53:17;;;;;;;44.00;25.47;;;3.00;99.90;;;;;;5019370;28;20620;-72
2021/12/09 06:55:43;;;;;;;41.50;23.93;;;3.00;99.90;;;;;;5018943;28;20658;-72
2021/12/09 06:58:09;;;;;;;45.37;23.73;;;3.00;99.90;;;;;;5004842;28;20186;-72
2021/12/09 07:00:41;;;;;;;45.77;25.00;;;3.00;99.90;;;;;;5039462;28;20620;-73
2021/12/09 07:03:09;;;;;;;39.10;22.77;;;3.00;99.90;;;;;;5004405;28;20588;-71
2021/12/09 07:05:37;;;;;;;49.17;24.30;;;3.00;99.90;;;;;;5006434;28;22514;-72
2021/12/09 07:08:04;;;;;;;48.57;25.70;;;3.00;99.90;;;;;;5001007;28;20991;-72
2021/12/09 07:10:31;;;;;;;42.90;24.20;;;3.00;99.90;;;;;;5009132;28;20656;-72
2021/12/09 07:12:56;;;;;;;47.87;26.20;;;3.00;99.90;;;;;;5002132;28;20631;-71
2021/12/09 07:15:22;;;;;;;45.93;24.87;;;3.00;99.90;;;;;;5004109;28;20656;-72
2021/12/09 07:17:48;;;;;;;45.17;25.17;;;2.80;99.90;;;;;;4998349;28;21099;-72
2021/12/09 07:20:18;;;;;;;39.87;24.40;;;2.90;99.90;;;;;;5009227;28;20205;-72
2021/12/09 07:22:45;;;;;;;45.13;24.93;;;2.90;99.90;;;;;;5008918;28;21549;-73
2021/12/09 07:25:11;;;;;;;43.10;23.97;;;2.90;99.90;;;;;;5009057;28;20626;-72
2021/12/09 07:27:39;;;;;;;44.30;24.83;;;3.00;99.90;;;;;;5006807;28;20625;-72
2021/12/09 07:30:07;;;;;;;52.20;25.20;;;2.80;99.90;;;;;;5002950;28;20214;-72
2021/12/09 07:32:33;;;;;;;45.57;24.13;;;2.90;99.90;;;;;;5007477;28;21316;-72
2021/12/09 07:34:58;;;;;;;42.30;24.87;;;2.80;99.90;;;;;;5006075;28;20735;-72
2021/12/09 07:37:24;;;;;;;47.53;24.70;;;2.80;99.90;;;;;;5003375;28;20239;-72
2021/12/09 07:39:50;;;;;;;45.33;24.97;;;2.90;99.90;;;;;;5006496;28;20635;-73
2021/12/09 07:42:17;;;;;;;49.10;25.50;;;2.90;99.90;;;;;;5009040;28;20182;-72
2021/12/09 07:44:43;;;;;;;45.90;23.97;;;3.00;99.90;;;;;;5006617;28;20704;-72
2021/12/09 07:47:09;;;;;;;43.20;23.93;;;3.00;99.90;;;;;;5004656;28;20659;-72
2021/12/09 07:49:34;;;;;;;47.10;25.93;;;3.00;99.90;;;;;;5002917;28;20671;-73
2021/12/09 07:52:00;;;;;;;43.80;24.07;;;3.00;99.90;;;;;;4999455;28;20180;-72
2021/12/09 07:54:25;;;;;;;44.43;25.37;;;3.10;99.90;;;;;;5005684;28;20181;-72
2021/12/09 07:56:51;;;;;;;48.13;25.70;;;3.00;99.90;;;;;;5002765;28;20234;-72
2021/12/09 07:59:17;;;;;;;48.27;25.90;;;3.00;99.90;;;;;;5006707;28;20254;-72
2021/12/09 08:01:44;;;;;;;48.13;24.40;;;3.00;99.90;;;;;;5019576;28;20217;-72
2021/12/09 08:04:10;;;;;;;50.10;26.40;;;3.00;99.90;;;;;;5005157;28;20217;-73
2021/12/09 08:06:36;;;;;;;47.73;26.40;;;3.00;99.90;;;;;;5003792;28;20644;-73
2021/12/09 08:09:03;;;;;;;48.43;25.00;;;2.90;99.90;;;;;;5002450;28;20709;-72
2021/12/09 08:11:29;;;;;;;46.13;24.93;;;2.80;99.90;;;;;;5003409;28;20623;-73
2021/12/09 08:13:54;;;;;;;39.80;23.67;;;2.80;99.90;;;;;;5006692;28;20608;-73
2021/12/09 08:16:20;;;;;;;49.80;25.67;;;2.80;99.90;;;;;;5004053;28;20229;-73
2021/12/09 08:18:56;;;;;;;44.47;24.83;;;2.90;99.90;;;;;;5004638;28;20213;-72
2021/12/09 08:21:23;;;;;;;47.73;25.10;;;3.00;99.90;;;;;;5009546;28;20268;-73
2021/12/09 08:23:49;;;;;;;45.83;26.20;;;3.00;99.90;;;;;;5002973;28;20696;-72
2021/12/09 08:26:15;;;;;;;50.20;25.30;;;3.00;99.90;;;;;;5001438;28;20671;-73
2021/12/09 08:28:41;;;;;;;54.40;26.43;;;3.10;99.90;;;;;;5001575;28;20687;-72
2021/12/09 08:31:06;;;;;;;49.23;24.17;;;3.00;99.90;;;;;;5005929;28;20688;-70
2021/12/09 08:33:32;;;;;;;50.70;25.90;;;3.10;99.90;;;;;;5005259;28;20245;-73
2021/12/09 08:35:58;;;;;;;48.80;25.37;;;3.10;99.90;;;;;;4998670;28;20520;-73
2021/12/09 08:38:24;;;;;;;43.43;25.57;;;3.10;99.90;;;;;;5005492;28;20193;-71
2021/12/09 08:40:52;;;;;;;49.47;27.77;;;3.10;99.90;;;;;;5007477;28;20205;-71
2021/12/09 08:43:19;;;;;;;46.60;26.03;;;3.00;99.90;;;;;;5012518;28;20612;-71
2021/12/09 08:45:46;;;;;;;46.60;25.10;;;3.00;99.90;;;;;;5003887;28;20631;-71
2021/12/09 08:48:13;;;;;;;45.70;25.47;;;2.90;99.90;;;;;;5025832;28;21286;-71
2021/12/09 08:50:39;;;;;;;45.90;24.20;;;2.90;99.90;;;;;;5005751;28;20676;-70
2021/12/09 08:53:10;;;;;;;48.93;26.20;;;3.00;99.90;;;;;;5004007;28;20624;-70
2021/12/09 08:55:38;;;;;;;48.33;25.20;;;3.00;99.90;;;;;;5007906;28;20754;-71
2021/12/09 08:58:04;;;;;;;51.53;26.40;;;3.00;99.90;;;;;;5001409;28;21440;-71
2021/12/09 09:00:32;;;;;;;52.60;25.30;;;2.90;99.90;;;;;;4999990;28;20648;-72
2021/12/09 09:02:58;;;;;;;51.80;27.20;;;3.00;99.90;;;;;;4999093;28;20607;-71
2021/12/09 09:05:25;;;;;;;54.47;25.83;;;3.00;99.90;;;;;;4998418;28;20674;-71
2021/12/09 09:07:50;;;;;;;50.40;26.47;;;3.00;99.90;;;;;;5001215;28;20683;-71
2021/12/09 09:10:20;;;;;;;50.57;26.50;;;3.00;99.90;;;;;;5003800;28;20684;-72
2021/12/09 09:12:46;;;;;;;43.87;24.47;;;3.00;99.90;;;;;;5002900;28;20288;-71
2021/12/09 09:15:15;;;;;;;44.77;25.30;;;2.90;99.90;;;;;;5007642;28;20659;-71
2021/12/09 09:17:41;;;;;;;52.80;26.60;;;3.00;99.90;;;;;;5007301;28;21274;-72
2021/12/09 09:20:09;;;;;;;51.17;27.00;;;3.00;99.90;;;;;;5005282;28;20687;-71
2021/12/09 09:22:36;;;;;;;55.00;29.10;;;3.00;99.90;;;;;;5022433;28;20625;-71
2021/12/09 09:25:02;;;;;;;53.30;27.13;;;3.10;99.90;;;;;;5001959;28;20608;-70
2021/12/09 09:27:28;;;;;;;50.20;26.80;;;3.00;99.90;;;;;;5005378;28;20632;-71
2021/12/09 09:29:53;;;;;;;47.80;26.73;;;3.00;99.90;;;;;;5005205;28;20644;-72
2021/12/09 09:32:19;;;;;;;52.03;27.63;;;3.00;99.90;;;;;;5004150;28;20196;-70
2021/12/09 09:34:45;;;;;;;52.40;29.73;;;3.00;99.90;;;;;;5004719;28;20203;-71
2021/12/09 09:37:11;;;;;;;49.47;27.00;;;3.00;99.90;;;;;;5001534;28;20217;-73
2021/12/09 09:39:41;;;;;;;51.83;27.30;;;3.00;99.90;;;;;;5001056;28;20209;-69
2021/12/09 09:44:48;;;;;;;60.87;27.80;;;3.00;99.90;;;;;;5004726;28;20581;-71
2021/12/09 09:47:16;;;;;;;52.37;25.70;;;3.10;99.90;;;;;;5006074;28;21226;-71
2021/12/09 09:49:43;;;;;;;54.43;27.03;;;3.10;99.90;;;;;;5003978;28;20648;-71
2021/12/09 09:52:10;;;;;;;51.37;26.77;;;3.10;99.90;;;;;;5002400;28;20613;-70
2021/12/09 09:54:36;;;;;;;49.63;25.80;;;3.20;99.90;;;;;;5004444;28;20600;-71
2021/12/09 09:57:03;;;;;;;52.03;27.47;;;3.20;99.90;;;;;;5000147;28;21054;-71
2021/12/09 09:59:31;;;;;;;48.07;26.10;;;3.10;99.90;;;;;;5007041;28;20633;-71
2021/12/09 10:02:00;;;;;;;51.67;27.00;;;3.10;99.90;;;;;;5007094;28;20707;-71
2021/12/09 10:04:33;;;;;;;47.93;26.60;;;3.20;99.90;;;;;;5006947;28;20620;-73
2021/12/09 10:07:00;;;;;;;51.93;25.53;;;3.20;99.90;;;;;;5002727;28;20664;-71
2021/12/09 10:09:26;;;;;;;52.37;25.70;;;3.20;99.90;;;;;;5020809;28;20640;-71
2021/12/09 10:11:54;;;;;;;55.40;28.50;;;3.20;99.90;;;;;;5007113;28;20631;-70
2021/12/09 10:14:26;;;;;;;46.57;25.27;;;3.20;99.90;;;;;;5012642;28;20616;-71
2021/12/09 10:17:08;;;;;;;46.67;25.90;;;3.20;99.90;;;;;;5002890;28;20692;-71
2021/12/09 10:19:50;;;;;;;52.13;27.33;;;3.20;99.90;;;;;;5007307;28;20648;-71
2021/12/09 10:22:39;;;;;;;45.80;24.47;;;3.20;99.90;;;;;;5019474;28;20635;-71
2021/12/09 10:25:20;;;;;;;49.27;26.13;;;3.20;99.90;;;;;;5003861;28;20660;-71
2021/12/09 10:27:57;;;;;;;53.10;27.17;;;3.10;99.90;;;;;;5000859;28;20643;-71
2021/12/09 10:30:25;;;;;;;50.17;26.67;;;3.10;99.90;;;;;;5014641;28;20769;-71
2021/12/09 10:32:59;;;;;;;53.70;26.70;;;3.20;99.90;;;;;;5004854;28;20636;-71
2021/12/09 10:35:30;;;;;;;47.87;26.10;;;3.00;99.90;;;;;;5010949;28;20663;-71
2021/12/09 10:37:56;;;;;;;53.47;25.60;;;3.00;99.90;;;;;;5009829;28;20628;-71
2021/12/09 10:40:22;;;;;;;56.37;28.10;;;3.00;99.90;;;;;;5005162;28;20655;-71
2021/12/09 10:42:51;;;;;;;52.43;25.20;;;3.10;99.90;;;;;;5005446;28;20201;-71
2021/12/09 10:45:24;;;;;;;51.43;26.40;;;3.20;99.90;;;;;;5005949;28;20623;-71
2021/12/09 10:48:06;;;;;;;51.40;25.97;;;3.20;99.90;;;;;;5005792;28;20638;-70
2021/12/09 10:53:32;;;;;;;48.73;26.30;;;3.20;99.90;;;;;;5002982;28;20615;-71
2021/12/09 10:56:00;;;;;;;45.73;25.80;;;3.20;99.90;;;;;;5003865;28;20611;-71
2021/12/09 10:58:33;;;;;;;50.10;25.30;;;3.40;99.90;;;;;;5005420;28;20849;-70
2021/12/09 11:01:12;;;;;;;53.43;26.87;;;3.20;99.90;;;;;;5007126;28;20722;-71
2021/12/09 11:03:44;;;;;;;48.90;25.87;;;3.20;99.90;;;;;;5019835;28;20628;-71
2021/12/09 11:06:19;;;;;;;50.53;26.83;;;3.30;99.90;;;;;;5005276;28;20682;-71
2021/12/09 11:08:47;;;;;;;54.33;27.80;;;3.20;99.90;;;;;;5003552;28;20744;-70
2021/12/09 11:11:14;;;;;;;47.27;26.03;;;3.30;99.90;;;;;;5003619;28;20608;-71
2021/12/09 11:13:50;;;;;;;53.87;27.17;;;3.30;99.90;;;;;;5004419;28;20628;-71
2021/12/09 11:16:24;;;;;;;50.60;26.37;;;3.30;99.90;;;;;;5019135;28;20624;-71
2021/12/09 11:19:30;;;;;;;50.50;26.00;;;3.30;99.90;;;;;;5011141;28;21455;-71
2021/12/09 11:22:02;;;;;;;51.53;27.23;;;3.30;99.90;;;;;;5008417;28;20615;-71
2021/12/09 11:24:35;;;;;;;53.40;27.93;;;3.30;99.90;;;;;;5009388;28;21237;-74
2021/12/09 11:27:12;;;;;;;48.20;26.70;;;3.30;99.90;;;;;;5005979;28;20640;-71
2021/12/09 11:29:51;;;;;;;51.13;25.40;;;3.40;99.90;;;;;;5006023;28;20652;-70
2021/12/09 11:32:48;;;;;;;47.10;24.07;;;3.30;99.90;;;;;;5007678;28;20623;-71
2021/12/09 11:35:20;;;;;;;50.13;26.60;;;3.30;99.90;;;;;;5005855;28;20678;-71
2021/12/09 11:38:00;;;;;;;50.47;25.60;;;3.40;99.90;;;;;;5001180;28;20659;-70
2021/12/09 11:43:01;;;;;;;52.60;27.93;;;3.40;99.90;;;;;;5008136;28;20576;-72
2021/12/09 11:45:45;;;;;;;52.40;27.77;;;3.40;99.90;;;;;;5001190;28;20636;-71
2021/12/09 11:48:12;;;;;;;47.60;26.53;;;3.50;99.90;;;;;;5000353;28;20674;-72
2021/12/09 11:50:40;;;;;;;47.93;25.73;;;3.50;99.90;;;;;;4997415;28;20728;-72
2021/12/09 11:53:13;;;;;;;51.80;28.03;;;3.40;99.90;;;;;;5003383;28;20642;-71
2021/12/09 11:55:52;;;;;;;53.67;28.13;;;3.30;99.90;;;;;;5001217;28;20693;-71
2021/12/09 11:58:23;;;;;;;53.83;28.07;;;3.40;99.90;;;;;;5002117;28;20716;-72
2021/12/09 12:12:45;;;;;;;49.27;26.33;;;3.60;99.90;;;;;;5023526;28;20588;-72
2021/12/09 12:16:05;;;;;;;50.30;27.73;;;3.70;99.90;;;;;;5022424;28;20655;-71
2021/12/09 12:18:50;;;;;;;52.47;29.47;;;3.70;99.90;;;;;;5017682;28;20746;-72
2021/12/09 12:21:38;;;;;;;53.83;27.40;;;3.70;99.90;;;;;;5019923;28;20622;-72
2021/12/09 12:25:28;;;;;;;51.97;27.10;;;3.70;99.90;;;;;;5022032;28;20572;-75
2021/12/09 12:27:42;;;;;;;51.37;27.20;;;3.70;99.90;;;;;;5022293;28;20739;-75
2021/12/09 12:30:38;;;;;;;42.27;24.17;;;3.80;99.90;;;;;;5039502;28;20690;-73
2021/12/09 12:35:57;;;;;;;51.10;26.57;;;3.80;99.90;;;;;;5023721;28;21447;-73
2021/12/09 12:41:12;;;;;;;51.20;26.97;;;3.80;99.90;;;;;;5023796;28;20708;-72
2021/12/09 12:43:46;;;;;;;49.80;26.47;;;3.80;99.90;;;;;;5025794;28;20765;-72
2021/12/09 12:46:56;;;;;;;54.43;28.20;;;3.90;99.90;;;;;;5025055;28;20664;-71
2021/12/09 12:49:34;;;;;;;55.43;27.30;;;3.80;99.90;;;;;;5024814;28;20810;-73
2021/12/09 12:52:20;;;;;;;53.60;27.30;;;3.90;99.90;;;;;;5023573;28;20602;-74
2021/12/09 12:54:52;;;;;;;50.63;27.87;;;4.00;99.90;;;;;;5024939;28;20733;-72
2021/12/09 12:57:32;;;;;;;60.20;28.47;;;4.00;99.90;;;;;;5028912;28;20735;-73
2021/12/09 13:00:12;;;;;;;53.33;27.93;;;4.10;99.90;;;;;;5020600;28;21175;-73
2021/12/09 13:05:49;;;;;;;55.50;27.40;;;4.10;99.90;;;;;;5016179;28;21003;-71
2021/12/09 13:13:35;;;;;;;50.63;28.30;;;4.20;99.90;;;;;;5000397;28;20987;-72
2021/12/09 13:21:47;;;;;;;53.03;28.87;;;4.30;99.90;;;;;;4997077;28;20693;-71
2021/12/09 13:24:19;;;;;;;53.40;26.73;;;4.40;99.90;;;;;;4997993;28;20682;-72
2021/12/09 13:27:05;;;;;;;47.20;26.50;;;4.40;99.90;;;;;;5015401;28;20735;-73
2021/12/09 13:29:42;;;;;;;53.47;27.87;;;4.30;99.90;;;;;;4997083;28;20657;-72
2021/12/09 13:32:39;;;;;;;46.83;26.83;;;4.30;99.90;;;;;;5016744;28;20608;-72
2021/12/09 13:35:11;;;;;;;52.10;28.30;;;4.20;99.90;;;;;;4996580;28;21251;-72